createdAt,value
2018-03-28T00:02:12.529Z,32.50
2018-03-28T00:04:40.852Z,31.30
2018-03-28T00:07:08.360Z,32.37
2018-03-28T00:09:35.886Z,33.20
2018-03-28T00:12:03.392Z,33.10
2018-03-28T00:14:31.682Z,29.37
2018-03-28T00:16:59.980Z,32.47
2018-03-28T00:19:27.481Z,28.93
2018-03-28T00:21:54.992Z,31.00
2018-03-28T00:24:23.305Z,28.93
2018-03-28T00:26:50.814Z,27.70
2018-03-28T00:29:18.318Z,29.47
2018-03-28T00:31:45.869Z,30.23
2018-03-28T00:34:13.382Z,29.67
2018-03-28T00:36:40.888Z,28.37
2018-03-28T00:39:09.190Z,29.13
2018-03-28T00:41:36.703Z,27.63
2018-03-28T00:44:04.205Z,27.80
2018-03-28T00:46:31.867Z,27.77
2018-03-28T00:49:00.149Z,28.20
2018-03-28T00:51:36.712Z,27.33
2018-03-28T00:54:04.981Z,27.80
2018-03-28T00:56:33.266Z,27.93
2018-03-28T00:59:00.945Z,29.70
2018-03-28T01:01:28.469Z,29.17
2018-03-28T01:03:55.969Z,30.47
2018-03-28T01:06:23.599Z,31.33
2018-03-28T01:08:51.105Z,31.83
2018-03-28T01:11:18.632Z,32.97
2018-03-28T01:13:46.193Z,33.23
2018-03-28T01:16:13.699Z,33.13
2018-03-28T01:18:41.208Z,34.73
2018-03-28T01:21:08.738Z,33.83
2018-03-28T01:23:36.264Z,34.07
2018-03-28T01:26:04.612Z,33.73
2018-03-28T01:28:32.321Z,32.90
2018-03-28T01:31:00.606Z,35.07
2018-03-28T01:33:29.092Z,35.00
2018-03-28T01:35:56.608Z,34.60
2018-03-28T01:38:24.117Z,32.97
2018-03-28T01:40:52.424Z,33.57
2018-03-28T01:43:19.938Z,35.13
2018-03-28T01:45:47.455Z,32.57
2018-03-28T01:48:14.991Z,31.20
2018-03-28T01:50:42.493Z,32.87
2018-03-28T01:53:10.004Z,33.60
2018-03-28T01:55:38.392Z,34.07
2018-03-28T01:58:06.660Z,34.90
2018-03-28T02:00:34.956Z,35.10
2018-03-28T02:03:03.248Z,37.00
2018-03-28T02:05:30.759Z,35.47
2018-03-28T02:07:58.287Z,33.30
2018-03-28T02:10:25.796Z,34.43
2018-03-28T02:12:53.299Z,32.90
2018-03-28T02:15:20.828Z,32.67
2018-03-28T02:17:48.329Z,33.90
2018-03-28T02:20:15.843Z,32.60
2018-03-28T02:22:43.401Z,31.67
2018-03-28T02:25:10.897Z,30.93
2018-03-28T02:27:39.171Z,31.50
2018-03-28T02:30:07.558Z,32.67
2018-03-28T02:32:35.824Z,31.27
2018-03-28T02:35:03.336Z,31.67
2018-03-28T02:37:30.875Z,32.50
2018-03-28T02:39:58.389Z,33.03
2018-03-28T02:42:26.655Z,33.07
2018-03-28T02:44:54.182Z,32.07
2018-03-28T02:47:21.694Z,32.83
2018-03-28T02:49:49.201Z,34.80
2018-03-28T02:52:17.491Z,35.03
2018-03-28T02:54:45.015Z,35.40
2018-03-28T02:57:12.527Z,36.63
2018-03-28T02:59:40.087Z,36.27
2018-03-28T03:02:07.593Z,38.17
2018-03-28T03:04:35.103Z,41.33
2018-03-28T03:07:02.634Z,41.47
2018-03-28T03:09:30.144Z,39.33
2018-03-28T03:11:57.657Z,38.37
2018-03-28T03:14:25.264Z,38.60
2018-03-28T03:16:52.770Z,40.53
2018-03-28T03:19:20.277Z,40.07
2018-03-28T03:21:48.585Z,38.30
2018-03-28T03:24:16.090Z,37.93
2018-03-28T03:26:45.106Z,39.77
2018-03-28T03:29:13.413Z,41.53
2018-03-28T03:31:40.913Z,44.97
2018-03-28T03:34:08.438Z,45.67
2018-03-28T03:36:35.965Z,47.80
2018-03-28T03:39:03.483Z,47.10
2018-03-28T03:41:30.982Z,47.97
2018-03-28T03:43:58.527Z,45.10
2018-03-28T03:46:26.032Z,45.17
2018-03-28T03:48:54.313Z,44.10
2018-03-28T03:51:22.706Z,44.73
2018-03-28T03:53:50.994Z,43.50
2018-03-28T03:56:18.498Z,43.07
2018-03-28T03:58:46.106Z,41.90
2018-03-28T04:01:13.569Z,44.93
2018-03-28T04:03:41.857Z,43.00
2018-03-28T04:06:10.160Z,43.30
2018-03-28T04:08:37.665Z,44.23
2018-03-28T04:11:05.241Z,42.90
2018-03-28T04:13:32.730Z,42.23
2018-03-28T04:16:01.024Z,40.33
2018-03-28T04:18:28.589Z,41.23
2018-03-28T04:20:56.115Z,42.30
2018-03-28T04:23:23.625Z,40.43
2018-03-28T04:25:51.135Z,41.47
2018-03-28T04:28:18.781Z,40.17
2018-03-28T04:30:46.312Z,40.70
2018-03-28T04:33:13.824Z,41.70
2018-03-28T04:35:41.378Z,38.83
2018-03-28T04:38:08.900Z,39.77
2018-03-28T04:40:36.431Z,41.00
2018-03-28T04:43:04.755Z,44.13
2018-03-28T04:45:32.293Z,40.93
2018-03-28T04:47:59.821Z,43.37
2018-03-28T04:50:27.479Z,44.10
2018-03-28T04:52:54.992Z,42.77
2018-03-28T04:55:22.511Z,42.90
2018-03-28T04:57:50.167Z,46.63
2018-03-28T05:00:17.691Z,44.57
2018-03-28T05:02:45.343Z,42.23
2018-03-28T05:05:13.012Z,44.63
2018-03-28T05:07:40.548Z,43.77
2018-03-28T05:10:08.069Z,45.93
2018-03-28T05:12:35.622Z,46.87
2018-03-28T05:15:03.144Z,47.70
2018-03-28T05:17:31.446Z,46.03
2018-03-28T05:19:58.996Z,47.63
2018-03-28T05:22:27.279Z,49.23
2018-03-28T05:24:55.597Z,50.33
2018-03-28T05:27:23.165Z,53.27
2018-03-28T05:29:50.683Z,51.07
2018-03-28T05:32:18.972Z,53.00
2018-03-28T05:34:46.626Z,53.90
2018-03-28T05:37:14.910Z,55.20
2018-03-28T05:39:43.196Z,52.50
2018-03-28T05:42:11.570Z,54.47
2018-03-28T05:44:39.857Z,53.27
2018-03-28T05:47:08.177Z,51.90
2018-03-28T05:49:35.801Z,47.60
2018-03-28T05:52:04.097Z,50.47
2018-03-28T05:54:31.683Z,46.10
2018-03-28T05:56:59.223Z,45.23
2018-03-28T05:59:27.503Z,44.43
2018-03-28T06:01:55.149Z,44.37
2018-03-28T06:04:23.458Z,43.57
2018-03-28T06:06:50.990Z,43.13
2018-03-28T06:09:18.533Z,45.10
2018-03-28T06:11:46.059Z,43.30
2018-03-28T06:14:13.585Z,43.87
2018-03-28T06:16:42.000Z,42.83
2018-03-28T06:19:09.534Z,45.17
2018-03-28T06:21:37.829Z,42.73
2018-03-28T06:24:05.481Z,44.80
2018-03-28T06:26:33.763Z,47.90
2018-03-28T06:29:02.181Z,47.43
2018-03-28T06:31:29.721Z,47.27
2018-03-28T06:33:58.013Z,45.67
2018-03-28T06:36:25.656Z,61.53
2018-03-28T06:38:53.217Z,51.33
2018-03-28T06:41:21.500Z,50.63
2018-03-28T06:43:49.926Z,51.47
2018-03-28T06:46:17.446Z,52.60
2018-03-28T06:48:45.738Z,54.67
2018-03-28T06:51:14.080Z,52.20
2018-03-28T06:53:41.620Z,51.87
2018-03-28T06:56:09.148Z,54.03
2018-03-28T06:58:37.469Z,51.40
2018-03-28T07:01:04.984Z,50.73
2018-03-28T07:03:33.281Z,53.77
2018-03-28T07:06:00.923Z,50.23
2018-03-28T07:08:29.217Z,52.07
2018-03-28T07:10:56.755Z,53.53
2018-03-28T07:13:24.309Z,53.07
2018-03-28T07:15:51.845Z,49.50
2018-03-28T07:18:19.362Z,50.17
2018-03-28T07:20:47.767Z,63.73
2018-03-28T07:23:15.301Z,53.17
2018-03-28T07:25:42.832Z,51.57
2018-03-28T07:28:10.400Z,48.33
2018-03-28T07:30:37.927Z,49.10
2018-03-28T07:33:05.455Z,47.93
2018-03-28T07:35:33.014Z,42.47
2018-03-28T07:38:00.533Z,45.53
2018-03-28T07:40:28.109Z,48.53
2018-03-28T07:42:55.616Z,43.80
2018-03-28T07:45:23.877Z,41.63
2018-03-28T07:47:51.376Z,45.03
2018-03-28T07:50:18.906Z,45.23
2018-03-28T07:52:46.408Z,42.67
2018-03-28T07:55:13.912Z,43.67
2018-03-28T07:57:41.438Z,42.30
2018-03-28T08:00:08.934Z,41.10
2018-03-28T08:02:36.443Z,39.53
2018-03-28T08:05:04.743Z,37.83
2018-03-28T08:07:33.401Z,40.13
2018-03-28T08:10:01.820Z,40.17
2018-03-28T08:12:29.335Z,38.60
2018-03-28T08:14:56.863Z,39.63
2018-03-28T08:17:24.424Z,37.83
2018-03-28T08:19:51.948Z,34.77
2018-03-28T08:22:20.244Z,36.00
2018-03-28T08:24:47.788Z,36.93
2018-03-28T08:27:16.078Z,31.90
2018-03-28T08:29:44.374Z,30.17
2018-03-28T08:32:11.937Z,33.80
2018-03-28T08:34:39.509Z,32.33
2018-03-28T08:37:07.041Z,31.97
2018-03-28T08:39:35.352Z,32.43
2018-03-28T08:42:02.914Z,28.70
2018-03-28T08:44:30.445Z,30.30
2018-03-28T08:46:58.888Z,29.97
2018-03-28T08:49:26.415Z,29.47
2018-03-28T08:51:53.953Z,27.50
2018-03-28T08:54:22.273Z,28.37
2018-03-28T08:56:49.797Z,27.10
2018-03-28T08:59:17.323Z,29.67
2018-03-28T09:01:44.967Z,28.43
2018-03-28T09:04:12.508Z,27.77
2018-03-28T09:06:40.801Z,26.47
2018-03-28T09:09:08.366Z,26.90
2018-03-28T09:11:35.949Z,24.47
2018-03-28T09:14:04.224Z,25.37
2018-03-28T09:16:31.914Z,26.80
2018-03-28T09:18:59.476Z,24.30
2018-03-28T09:21:26.990Z,23.10
2018-03-28T09:23:55.290Z,23.77
2018-03-28T09:26:22.849Z,24.40
2018-03-28T09:28:50.392Z,27.23
2018-03-28T09:31:18.698Z,25.70
2018-03-28T09:33:46.213Z,25.63
2018-03-28T09:36:13.729Z,25.30
2018-03-28T09:38:41.299Z,25.33
2018-03-28T09:41:08.832Z,26.33
2018-03-28T09:43:37.147Z,26.50
2018-03-28T09:46:04.735Z,27.17
2018-03-28T09:48:32.284Z,26.63
2018-03-28T09:50:59.837Z,28.47
2018-03-28T09:53:27.405Z,32.30
2018-03-28T09:55:54.960Z,26.63
2018-03-28T09:58:22.535Z,26.87
2018-03-28T10:00:50.094Z,26.77
2018-03-28T10:03:17.672Z,27.20
2018-03-28T10:05:45.198Z,26.83
2018-03-28T10:08:12.865Z,29.03
2018-03-28T10:10:40.408Z,26.03
2018-03-28T10:13:08.713Z,23.57
2018-03-28T10:15:36.286Z,24.67
2018-03-28T10:18:03.856Z,24.70
2018-03-28T10:20:31.449Z,25.13
2018-03-28T10:22:59.001Z,24.53
2018-03-28T10:25:26.518Z,23.77
2018-03-28T10:27:54.844Z,23.30
2018-03-28T10:30:23.262Z,24.23
2018-03-28T10:32:50.785Z,27.00
2018-03-28T10:35:18.491Z,23.33
2018-03-28T10:37:46.067Z,23.60
2018-03-28T10:40:13.601Z,23.87
2018-03-28T10:42:41.195Z,81.97
2018-03-28T10:45:08.825Z,26.17
2018-03-28T10:47:36.358Z,24.50
2018-03-28T10:50:03.890Z,24.30
2018-03-28T10:52:32.208Z,23.03
2018-03-28T10:54:59.777Z,24.10
2018-03-28T10:57:28.084Z,24.70
2018-03-28T10:59:55.618Z,26.33
2018-03-28T11:02:23.160Z,24.27
2018-03-28T11:04:50.682Z,24.17
2018-03-28T11:07:18.839Z,24.37
2018-03-28T11:09:46.376Z,28.23
2018-03-28T11:12:13.998Z,27.30
2018-03-28T11:14:41.541Z,26.63
2018-03-28T11:17:09.102Z,25.30
2018-03-28T11:19:36.636Z,25.93
2018-03-28T11:22:04.206Z,24.13
2018-03-28T11:24:31.792Z,26.27
2018-03-28T11:26:59.327Z,24.87
2018-03-28T11:29:26.879Z,23.97
2018-03-28T11:31:54.420Z,24.80
2018-03-28T11:34:22.737Z,24.87
2018-03-28T11:36:50.295Z,26.47
2018-03-28T11:39:17.825Z,24.53
2018-03-28T11:41:46.148Z,25.50
2018-03-28T11:44:13.833Z,25.17
2018-03-28T11:46:41.377Z,25.13
2018-03-28T11:49:08.912Z,27.07
2018-03-28T11:51:37.239Z,25.97
2018-03-28T11:54:04.784Z,28.17
2018-03-28T11:56:32.310Z,26.60
2018-03-28T11:58:59.957Z,25.83
2018-03-28T12:01:27.516Z,26.57
2018-03-28T12:03:55.040Z,27.07
2018-03-28T12:06:22.716Z,26.63
2018-03-28T12:08:50.237Z,26.17
2018-03-28T12:11:18.551Z,27.77
2018-03-28T12:13:46.128Z,26.43
2018-03-28T12:16:13.662Z,27.03
2018-03-28T12:18:41.189Z,25.20
2018-03-28T12:21:08.754Z,27.70
2018-03-28T12:23:36.257Z,25.33
2018-03-28T12:26:03.880Z,27.43
2018-03-28T12:28:31.427Z,26.03
2018-03-28T12:30:58.997Z,25.47
2018-03-28T12:33:26.496Z,25.43
2018-03-28T12:35:54.808Z,27.13
2018-03-28T12:38:22.327Z,26.20
2018-03-28T12:40:49.836Z,26.20
2018-03-28T12:43:17.376Z,27.23
2018-03-28T12:45:44.921Z,27.83
2018-03-28T12:48:12.448Z,27.47
2018-03-28T12:50:40.028Z,28.13
2018-03-28T12:53:07.535Z,26.20
2018-03-28T12:55:35.214Z,25.80
2018-03-28T12:58:03.475Z,27.73
2018-03-28T13:00:31.739Z,28.40
2018-03-28T13:02:59.263Z,25.30
2018-03-28T13:05:26.793Z,26.00
2018-03-28T13:07:54.458Z,26.17
2018-03-28T13:10:23.258Z,26.80
2018-03-28T13:12:50.842Z,28.13
2018-03-28T13:15:18.345Z,26.47
2018-03-28T13:17:45.861Z,27.53
2018-03-28T13:20:13.401Z,27.90
2018-03-28T13:22:40.998Z,28.60
2018-03-28T13:25:08.589Z,28.37
2018-03-28T13:27:36.158Z,26.53
2018-03-28T13:30:03.702Z,28.57
2018-03-28T13:32:31.337Z,28.40
2018-03-28T13:34:58.865Z,26.87
2018-03-28T13:37:26.424Z,26.57
2018-03-28T13:39:53.985Z,27.80
2018-03-28T13:42:21.620Z,28.43
2018-03-28T13:44:49.252Z,27.60
2018-03-28T13:47:16.799Z,26.87
2018-03-28T13:49:45.140Z,25.87
2018-03-28T13:52:13.484Z,28.03
2018-03-28T13:54:41.070Z,31.20
2018-03-28T13:57:08.618Z,27.50
2018-03-28T13:59:36.129Z,27.17
2018-03-28T14:02:03.744Z,30.60
2018-03-28T14:04:31.351Z,29.60
2018-03-28T14:06:58.873Z,28.70
2018-03-28T14:09:26.382Z,26.90
2018-03-28T14:11:54.104Z,22.80
2018-03-28T14:14:21.687Z,23.33
2018-03-28T14:16:49.211Z,25.23
2018-03-28T14:19:17.579Z,26.93
2018-03-28T14:21:46.054Z,26.53
2018-03-28T14:24:13.514Z,25.23
2018-03-28T14:26:41.191Z,24.77
2018-03-28T14:29:08.729Z,22.93
2018-03-28T14:31:36.259Z,23.40
2018-03-28T14:34:03.834Z,23.73
2018-03-28T14:36:31.427Z,25.93
2018-03-28T14:38:58.969Z,25.77
2018-03-28T14:41:26.508Z,25.80
2018-03-28T14:43:54.093Z,27.80
2018-03-28T14:46:21.610Z,27.93
2018-03-28T14:48:50.015Z,28.73
2018-03-28T14:51:17.635Z,26.30
2018-03-28T14:53:45.297Z,27.17
2018-03-28T14:56:12.849Z,26.80
2018-03-28T14:58:40.416Z,28.67
2018-03-28T15:01:08.040Z,26.90
2018-03-28T15:03:35.597Z,27.20
2018-03-28T15:06:03.147Z,27.67
2018-03-28T15:08:31.530Z,26.57
2018-03-28T15:10:59.842Z,27.57
2018-03-28T15:13:27.431Z,25.73
2018-03-28T15:15:55.188Z,24.93
2018-03-28T15:18:22.735Z,26.37
2018-03-28T15:20:50.255Z,25.73
2018-03-28T15:23:17.846Z,26.87
2018-03-28T15:25:45.424Z,25.80
2018-03-28T15:28:12.965Z,25.70
2018-03-28T15:30:41.362Z,27.63
2018-03-28T15:33:08.917Z,27.63
2018-03-28T15:35:37.202Z,28.57
2018-03-28T15:38:04.758Z,27.77
2018-03-28T15:40:33.154Z,27.27
2018-03-28T15:43:00.689Z,25.30
2018-03-28T15:45:28.315Z,25.73
2018-03-28T15:47:57.190Z,28.00
2018-03-28T15:50:25.011Z,29.57
2018-03-28T15:52:52.555Z,26.93
2018-03-28T15:55:20.106Z,26.83
2018-03-28T15:57:47.645Z,27.07
2018-03-28T16:00:15.176Z,27.00
2018-03-28T16:02:42.806Z,27.67
2018-03-28T16:05:10.339Z,27.43
2018-03-28T16:07:37.852Z,27.40
2018-03-28T16:10:05.625Z,28.50
2018-03-28T16:12:33.170Z,28.50
2018-03-28T16:15:00.733Z,28.37
2018-03-28T16:17:28.390Z,28.17
2018-03-28T16:19:55.980Z,28.27
2018-03-28T16:22:23.594Z,29.30
2018-03-28T16:24:51.203Z,28.33
2018-03-28T16:27:18.755Z,30.30
2018-03-28T16:29:46.352Z,30.83
2018-03-28T16:32:13.899Z,31.43
2018-03-28T16:34:41.523Z,27.67
2018-03-28T16:37:09.084Z,28.53
2018-03-28T16:39:36.665Z,29.83
2018-03-28T16:42:04.545Z,31.27
2018-03-28T16:44:32.171Z,27.50
2018-03-28T16:46:59.773Z,26.73
2018-03-28T16:49:27.647Z,26.23
2018-03-28T16:51:55.216Z,26.90
2018-03-28T16:54:22.849Z,26.13
2018-03-28T16:56:50.394Z,29.23
2018-03-28T16:59:17.922Z,26.07
2018-03-28T17:01:45.495Z,29.13
2018-03-28T17:04:13.020Z,25.13
2018-03-28T17:06:40.529Z,26.03
2018-03-28T17:09:08.074Z,27.00
2018-03-28T17:11:35.594Z,32.60
2018-03-28T17:14:03.182Z,34.77
2018-03-28T17:16:31.562Z,33.97
2018-03-28T17:18:59.116Z,33.53
2018-03-28T17:21:26.700Z,38.60
2018-03-28T17:23:54.411Z,34.20
2018-03-28T17:26:22.730Z,36.80
2018-03-28T17:28:50.285Z,37.93
2018-03-28T17:31:17.969Z,33.33
2018-03-28T17:33:45.645Z,33.97
2018-03-28T17:36:13.351Z,34.97
2018-03-28T17:38:41.689Z,42.40
2018-03-28T17:41:09.248Z,42.13
2018-03-28T17:43:36.830Z,42.87
2018-03-28T17:46:04.521Z,44.87
2018-03-28T17:48:32.807Z,44.70
2018-03-28T17:51:01.132Z,37.37
2018-03-28T17:53:28.704Z,35.27
2018-03-28T17:55:56.283Z,35.03
2018-03-28T17:58:23.779Z,35.87
2018-03-28T18:00:52.064Z,37.00
2018-03-28T18:03:20.382Z,36.63
2018-03-28T18:05:47.946Z,31.50
2018-03-28T18:08:15.521Z,33.07
2018-03-28T18:10:43.105Z,33.37
2018-03-28T18:13:10.789Z,31.03
2018-03-28T18:15:38.417Z,33.03
2018-03-28T18:18:06.046Z,35.70
2018-03-28T18:20:34.402Z,31.70
2018-03-28T18:23:02.009Z,31.73
2018-03-28T18:25:29.524Z,31.97
2018-03-28T18:27:57.206Z,30.80
2018-03-28T18:30:25.511Z,30.80
2018-03-28T18:32:53.036Z,30.40
2018-03-28T18:35:20.691Z,34.50
2018-03-28T18:37:48.307Z,34.47
2018-03-28T18:40:15.878Z,35.30
2018-03-28T18:42:43.488Z,34.50
2018-03-28T18:45:11.076Z,36.67
2018-03-28T18:47:38.733Z,36.37
2018-03-28T18:50:06.615Z,37.27
2018-03-28T18:52:34.956Z,37.47
2018-03-28T18:55:02.620Z,37.50
2018-03-28T18:57:30.248Z,39.07
2018-03-28T18:59:57.884Z,40.77
2018-03-28T19:02:25.658Z,38.53
2018-03-28T19:04:53.368Z,39.33
2018-03-28T19:07:20.974Z,42.17
2018-03-28T19:09:48.550Z,39.77
2018-03-28T19:12:16.896Z,40.93
2018-03-28T19:14:44.604Z,40.27
2018-03-28T19:17:13.143Z,39.97
2018-03-28T19:19:40.893Z,37.57
2018-03-28T19:22:08.469Z,39.03
2018-03-28T19:24:36.085Z,38.60
2018-03-28T19:27:03.654Z,38.30
2018-03-28T19:29:31.253Z,39.77
2018-03-28T19:31:58.811Z,38.63
2018-03-28T19:34:26.423Z,39.03
2018-03-28T19:36:54.010Z,37.13
2018-03-28T19:39:21.567Z,38.07
2018-03-28T19:41:49.574Z,38.07
2018-03-28T19:44:17.193Z,36.50
2018-03-28T19:46:44.752Z,37.53
2018-03-28T19:49:13.535Z,36.77
2018-03-28T19:51:41.331Z,37.57
2018-03-28T19:54:08.955Z,37.07
2018-03-28T19:56:36.599Z,34.50
2018-03-28T19:59:04.293Z,36.77
2018-03-28T20:01:31.839Z,38.27
2018-03-28T20:03:59.408Z,36.13
2018-03-28T20:06:27.113Z,34.43
2018-03-28T20:08:54.772Z,36.83
2018-03-28T20:11:22.550Z,34.97
2018-03-28T20:13:50.103Z,34.13
2018-03-28T20:16:17.699Z,34.43
2018-03-28T20:18:47.188Z,34.90
2018-03-28T20:21:14.957Z,35.57
2018-03-28T20:23:42.710Z,35.83
2018-03-28T20:26:10.283Z,36.50
2018-03-28T20:28:38.159Z,35.67
2018-03-28T20:31:05.788Z,35.63
2018-03-28T20:33:33.562Z,35.53
2018-03-28T20:36:01.111Z,36.07
2018-03-28T20:38:28.649Z,35.77
2018-03-28T20:40:57.070Z,36.40
2018-03-28T20:43:24.754Z,35.30
2018-03-28T20:45:52.530Z,35.77
2018-03-28T20:48:20.644Z,36.33
2018-03-28T20:50:49.013Z,35.77
2018-03-28T20:53:16.639Z,35.07
2018-03-28T20:55:44.466Z,36.47
2018-03-28T20:58:12.854Z,34.63
2018-03-28T21:00:41.638Z,35.30
2018-03-28T21:03:09.318Z,33.30
2018-03-28T21:05:37.071Z,36.40
2018-03-28T21:08:05.831Z,33.87
2018-03-28T21:10:34.475Z,35.57
2018-03-28T21:13:02.839Z,34.27
2018-03-28T21:15:31.808Z,36.60
2018-03-28T21:18:00.328Z,36.37
2018-03-28T21:20:28.333Z,36.63
2018-03-28T21:22:56.198Z,35.93
2018-03-28T21:25:23.898Z,35.60
2018-03-28T21:27:51.745Z,37.73
2018-03-28T21:30:19.457Z,37.20
2018-03-28T21:32:47.748Z,37.10
2018-03-28T21:35:16.252Z,36.67
2018-03-28T21:37:43.770Z,37.87
2018-03-28T21:40:11.302Z,37.13
2018-03-28T21:42:38.869Z,37.83
2018-03-28T21:45:06.384Z,38.37
2018-03-28T21:47:34.678Z,37.23
2018-03-28T21:50:02.392Z,35.40
2018-03-28T21:52:29.923Z,34.83
2018-03-28T21:54:57.554Z,36.07
2018-03-28T21:57:25.277Z,36.13
2018-03-28T21:59:53.650Z,37.00
2018-03-28T22:02:21.192Z,36.67
2018-03-28T22:04:49.541Z,38.60
2018-03-28T22:07:17.097Z,35.90
2018-03-28T22:09:44.642Z,38.80
2018-03-28T22:12:12.266Z,37.53
2018-03-28T22:14:40.575Z,36.40
2018-03-28T22:17:08.084Z,37.70
2018-03-28T22:19:35.668Z,36.47
2018-03-28T22:22:04.074Z,35.37
2018-03-28T22:24:31.621Z,35.00
2018-03-28T22:27:00.026Z,35.37
2018-03-28T22:29:27.552Z,35.13
2018-03-28T22:31:55.845Z,35.90
2018-03-28T22:34:24.272Z,34.67
2018-03-28T22:36:51.787Z,34.90
2018-03-28T22:39:20.062Z,35.77
2018-03-28T22:41:48.373Z,34.93
2018-03-28T22:44:15.897Z,32.17
2018-03-28T22:46:44.244Z,34.57
2018-03-28T22:49:11.783Z,35.53
2018-03-28T22:51:39.348Z,32.63
2018-03-28T22:54:06.909Z,33.97
2018-03-28T22:56:34.446Z,33.57
2018-03-28T22:59:02.760Z,35.10
2018-03-28T23:01:30.266Z,32.67
2018-03-28T23:03:58.188Z,33.10
2018-03-28T23:06:25.730Z,34.17
2018-03-28T23:08:54.028Z,32.40
2018-03-28T23:11:21.560Z,33.97
2018-03-28T23:13:49.065Z,32.60
2018-03-28T23:16:16.582Z,33.07
2018-03-28T23:18:44.134Z,33.07
2018-03-28T23:21:11.643Z,34.40
2018-03-28T23:23:39.156Z,33.63
2018-03-28T23:26:06.724Z,33.70
2018-03-28T23:28:34.254Z,34.40
2018-03-28T23:31:01.778Z,34.17
2018-03-28T23:33:30.085Z,33.97
2018-03-28T23:35:57.757Z,35.37
2018-03-28T23:38:25.284Z,32.73
2018-03-28T23:40:53.589Z,32.87
2018-03-28T23:43:21.099Z,34.43
2018-03-28T23:45:48.603Z,34.20
2018-03-28T23:48:16.254Z,34.63
2018-03-28T23:50:44.520Z,35.40
2018-03-28T23:53:12.028Z,34.57
2018-03-28T23:55:39.649Z,33.27
2018-03-28T23:58:07.155Z,34.93
